Time;durP1;ratioP1;P1;durP2;ratioP2;P2;SDS_P1;SDS_P2;PMS_P1;PMS_P2;Temp;Humidity;BMP_temperature;BMP_pressure;BME280_temperature;BME280_humidity;BME280_pressure;Samples;Min_cycle;Max_cycle;Signal;HPM_P1;HPM_P2
2024/01/12 00:00:42;;;;;;;21.10;9.02;;;6.00;99.90;;;;;;5035559;28;20048;-77
2024/01/12 00:03:08;;;;;;;17.08;8.38;;;5.80;99.90;;;;;;5045106;28;20048;-76
2024/01/12 00:05:34;;;;;;;15.35;7.95;;;5.40;99.90;;;;;;5035659;28;20028;-77
2024/01/12 00:07:59;;;;;;;19.42;8.82;;;5.70;99.90;;;;;;5050939;28;20064;-75
2024/01/12 00:10:25;;;;;;;18.08;7.82;;;5.30;99.90;;;;;;5069454;28;20102;-75
2024/01/12 00:12:51;;;;;;;14.30;7.97;;;5.40;99.90;;;;;;5061697;28;20120;-77
2024/01/12 00:15:16;;;;;;;13.80;8.02;;;5.70;99.90;;;;;;5066756;28;20042;-77
2024/01/12 00:17:42;;;;;;;20.92;9.38;;;5.70;99.90;;;;;;5052478;28;20120;-79
2024/01/12 00:20:08;;;;;;;17.80;8.82;;;6.00;99.90;;;;;;5051729;28;20082;-78
2024/01/12 00:22:34;;;;;;;20.98;9.77;;;5.50;99.90;;;;;;5049492;28;20645;-77
2024/01/12 00:25:00;;;;;;;16.10;9.00;;;6.00;99.90;;;;;;5051281;28;20127;-74
2024/01/12 00:27:26;;;;;;;17.95;9.40;;;6.10;99.90;;;;;;5049325;28;20036;-76
2024/01/12 00:29:51;;;;;;;15.60;8.73;;;5.30;99.90;;;;;;5047413;28;20089;-75
2024/01/12 00:32:17;;;;;;;20.05;9.35;;;5.40;99.90;;;;;;5017090;28;20048;-76
2024/01/12 00:34:43;;;;;;;14.10;8.63;;;5.70;99.90;;;;;;5051644;28;20117;-77
2024/01/12 00:37:08;;;;;;;16.40;9.13;;;5.90;99.90;;;;;;5049039;28;20047;-76
2024/01/12 00:39:36;;;;;;;14.82;9.15;;;5.60;99.90;;;;;;5066047;28;20037;-75
2024/01/12 00:42:02;;;;;;;16.67;9.10;;;6.10;99.90;;;;;;5065979;28;20032;-74
2024/01/12 00:44:28;;;;;;;20.27;9.23;;;6.10;99.90;;;;;;5059514;28;20526;-77
2024/01/12 00:46:55;;;;;;;16.98;10.73;;;5.60;99.90;;;;;;5064107;28;20036;-76
2024/01/12 00:49:21;;;;;;;19.70;11.48;;;5.80;99.90;;;;;;5051960;28;20058;-73
2024/01/12 00:51:47;;;;;;;15.45;9.80;;;6.00;99.90;;;;;;5052032;28;20036;-76
2024/01/12 00:54:13;;;;;;;15.95;10.73;;;6.30;99.90;;;;;;5047802;28;20047;-73
2024/01/12 00:56:39;;;;;;;21.05;10.30;;;5.70;99.90;;;;;;5050761;28;20048;-76
2024/01/12 00:59:08;;;;;;;16.00;9.80;;;5.60;99.90;;;;;;5065694;28;20033;-77
2024/01/12 01:01:34;;;;;;;13.48;9.10;;;5.80;99.90;;;;;;5065528;28;20455;-74
2024/01/12 01:04:01;;;;;;;16.42;9.50;;;6.80;99.90;;;;;;5067267;28;20040;-74
2024/01/12 01:06:27;;;;;;;16.83;10.25;;;6.10;99.90;;;;;;5051119;28;20138;-76
2024/01/12 01:08:53;;;;;;;16.55;8.93;;;6.00;99.90;;;;;;5067596;28;20071;-78
2024/01/12 01:11:18;;;;;;;16.45;8.63;;;6.40;99.90;;;;;;5068145;28;20071;-75
2024/01/12 01:13:44;;;;;;;15.80;8.38;;;5.80;99.90;;;;;;5029176;28;20037;-76
2024/01/12 01:16:10;;;;;;;16.63;8.60;;;6.50;99.90;;;;;;5067245;28;20555;-74
2024/01/12 01:18:36;;;;;;;12.80;8.00;;;6.40;99.90;;;;;;5050886;28;20041;-74
2024/01/12 01:21:02;;;;;;;17.92;8.52;;;6.00;99.90;;;;;;5067594;28;20040;-73
2024/01/12 01:23:27;;;;;;;14.85;8.13;;;6.40;99.90;;;;;;5048201;28;20120;-77
2024/01/12 01:25:54;;;;;;;14.15;8.50;;;6.60;99.90;;;;;;5032692;28;20047;-73
2024/01/12 01:28:19;;;;;;;16.58;7.80;;;6.70;99.90;;;;;;5050547;28;20041;-76
2024/01/12 01:30:45;;;;;;;18.08;8.93;;;6.70;99.90;;;;;;5050294;28;20047;-78
2024/01/12 01:33:11;;;;;;;15.45;7.70;;;5.80;99.90;;;;;;5030754;28;20037;-78
2024/01/12 01:35:37;;;;;;;16.83;8.70;;;6.20;99.90;;;;;;5051374;28;20397;-76
2024/01/12 01:38:03;;;;;;;16.23;7.90;;;6.50;99.90;;;;;;5031792;28;20044;-78
2024/01/12 01:40:28;;;;;;;14.05;7.90;;;6.80;99.90;;;;;;5032878;28;20040;-77
2024/01/12 01:42:54;;;;;;;12.43;7.45;;;6.80;99.90;;;;;;5060995;28;20051;-77
2024/01/12 01:45:20;;;;;;;12.23;7.38;;;6.90;99.90;;;;;;5045169;28;20098;-75
2024/01/12 01:47:47;;;;;;;13.50;7.72;;;6.40;99.90;;;;;;5044942;28;20029;-76
2024/01/12 01:50:15;;;;;;;12.98;7.38;;;6.20;99.90;;;;;;5064125;28;20052;-75
2024/01/12 01:52:43;;;;;;;12.75;7.70;;;6.50;99.90;;;;;;5051113;28;20047;-77
2024/01/12 01:55:11;;;;;;;12.60;7.90;;;6.10;99.90;;;;;;5065475;28;20366;-80
2024/01/12 01:57:39;;;;;;;14.88;7.38;;;6.10;99.90;;;;;;5073590;28;20113;-74
2024/01/12 02:00:05;;;;;;;17.77;7.45;;;6.10;99.90;;;;;;5068228;28;20143;-74
2024/01/12 02:02:31;;;;;;;14.05;7.68;;;6.70;99.90;;;;;;5028792;28;20094;-77
2024/01/12 02:04:59;;;;;;;13.65;7.35;;;6.10;99.90;;;;;;5047778;28;20512;-75
2024/01/12 02:07:25;;;;;;;15.95;7.53;;;6.90;99.90;;;;;;5066590;28;20079;-76
2024/01/12 02:09:52;;;;;;;14.05;8.25;;;6.20;99.90;;;;;;5067256;28;20033;-78
2024/01/12 02:12:17;;;;;;;14.27;8.38;;;6.10;99.90;;;;;;5042822;28;20550;-76
2024/01/12 02:14:43;;;;;;;16.98;8.55;;;6.70;99.90;;;;;;5066085;28;20123;-77
2024/01/12 02:17:09;;;;;;;16.05;8.32;;;7.20;99.90;;;;;;5066942;28;20674;-79
2024/01/12 02:19:34;;;;;;;15.63;8.77;;;6.30;99.90;;;;;;5050297;28;20032;-75
2024/01/12 02:22:00;;;;;;;17.77;8.90;;;6.50;99.90;;;;;;5064964;28;20037;-75
2024/01/12 02:24:26;;;;;;;14.75;8.60;;;6.40;99.90;;;;;;5069410;28;20897;-75
2024/01/12 02:26:51;;;;;;;17.48;9.27;;;7.30;99.90;;;;;;5028647;28;20033;-76
2024/01/12 02:29:17;;;;;;;13.75;8.90;;;6.50;99.90;;;;;;5049073;28;20053;-77
2024/01/12 02:31:43;;;;;;;11.70;8.40;;;7.20;99.90;;;;;;5047791;28;20044;-75
2024/01/12 02:34:10;;;;;;;14.50;8.52;;;7.30;99.90;;;;;;5040417;28;20056;-77
2024/01/12 02:36:36;;;;;;;14.50;8.73;;;6.20;99.90;;;;;;5066670;28;20040;-78
2024/01/12 02:39:02;;;;;;;12.50;8.48;;;6.50;99.90;;;;;;5066094;28;20040;-77
2024/01/12 02:41:28;;;;;;;12.93;8.38;;;6.30;99.90;;;;;;5065241;28;20041;-75
2024/01/12 02:43:53;;;;;;;9.80;7.18;;;6.90;99.90;;;;;;5042931;28;20127;-76
2024/01/12 02:46:19;;;;;;;14.02;7.95;;;6.60;99.90;;;;;;5064664;28;20064;-76
2024/01/12 02:48:45;;;;;;;13.20;7.90;;;6.60;99.90;;;;;;5048495;28;20032;-77
2024/01/12 02:51:10;;;;;;;15.70;7.78;;;6.70;99.90;;;;;;5075395;28;20115;-75
2024/01/12 02:53:36;;;;;;;10.35;7.40;;;6.10;99.90;;;;;;5049252;28;20037;-75
2024/01/12 02:56:02;;;;;;;11.63;8.10;;;5.90;99.90;;;;;;5062868;28;20033;-74
2024/01/12 02:58:27;;;;;;;13.77;9.00;;;6.10;99.90;;;;;;5045936;28;20044;-72
2024/01/12 03:00:53;;;;;;;17.88;8.80;;;6.00;99.90;;;;;;5029907;28;20045;-74
2024/01/12 03:03:19;;;;;;;12.15;7.80;;;6.10;99.90;;;;;;5044420;28;20040;-73
2024/01/12 03:05:45;;;;;;;14.30;8.25;;;5.90;99.90;;;;;;5040062;28;20405;-77
2024/01/12 03:08:11;;;;;;;14.88;9.05;;;6.10;99.90;;;;;;5067778;28;20045;-74
2024/01/12 03:10:37;;;;;;;17.65;9.60;;;5.60;99.90;;;;;;5050433;28;20048;-76
2024/01/12 03:13:03;;;;;;;16.13;9.43;;;5.60;99.90;;;;;;5064598;28;20048;-75
2024/01/12 03:15:29;;;;;;;14.60;9.63;;;6.20;99.90;;;;;;5070218;28;20059;-76
2024/01/12 03:17:56;;;;;;;20.05;10.48;;;5.90;99.90;;;;;;5052804;28;20061;-75
2024/01/12 03:20:22;;;;;;;18.20;10.35;;;6.30;99.90;;;;;;5049975;28;20420;-76
2024/01/12 03:22:48;;;;;;;20.60;10.45;;;6.50;99.90;;;;;;5032714;28;20039;-76
2024/01/12 03:25:13;;;;;;;20.63;11.02;;;6.40;99.90;;;;;;5047502;28;20052;-76
2024/01/12 03:27:39;;;;;;;17.23;9.25;;;5.90;99.90;;;;;;5069863;28;20109;-74
2024/01/12 03:30:05;;;;;;;14.95;9.48;;;6.10;99.90;;;;;;5064036;28;20094;-78
2024/01/12 03:32:33;;;;;;;18.17;9.60;;;6.60;99.90;;;;;;5065209;28;20036;-80
2024/01/12 03:34:59;;;;;;;20.63;9.63;;;6.00;99.90;;;;;;5048612;28;20498;-76
2024/01/12 03:37:25;;;;;;;21.52;10.77;;;6.80;99.90;;;;;;5050083;28;20852;-78
2024/01/12 03:39:51;;;;;;;24.30;10.15;;;6.80;99.90;;;;;;5049586;28;20032;-77
2024/01/12 03:42:17;;;;;;;18.67;9.77;;;6.50;99.90;;;;;;5068587;28;20473;-81
2024/01/12 03:44:43;;;;;;;19.70;9.50;;;6.80;99.90;;;;;;5045426;28;20481;-76
2024/01/12 03:47:09;;;;;;;20.60;9.57;;;6.30;99.90;;;;;;5067196;28;20044;-75
2024/01/12 03:49:34;;;;;;;12.65;9.70;;;7.00;99.90;;;;;;5062823;28;20135;-77
2024/01/12 03:52:00;;;;;;;16.67;10.05;;;7.00;99.90;;;;;;5064879;28;20048;-75
2024/01/12 03:54:26;;;;;;;15.25;8.63;;;6.10;99.90;;;;;;5064484;28;20063;-76
2024/01/12 03:56:52;;;;;;;19.05;9.02;;;6.10;99.90;;;;;;5048973;28;20041;-76
2024/01/12 03:59:18;;;;;;;19.60;9.65;;;6.70;99.90;;;;;;5069217;28;20145;-76
2024/01/12 04:01:45;;;;;;;15.38;8.63;;;7.00;99.90;;;;;;5064588;28;20099;-78
2024/01/12 04:04:11;;;;;;;14.32;8.10;;;6.90;99.90;;;;;;5050054;28;20079;-77
2024/01/12 04:06:37;;;;;;;13.98;8.00;;;6.20;99.90;;;;;;5052512;28;20193;-76
2024/01/12 04:09:03;;;;;;;23.70;8.75;;;6.50;99.90;;;;;;5069394;28;20047;-77
2024/01/12 04:11:29;;;;;;;17.05;9.05;;;6.60;99.90;;;;;;5068073;28;20036;-80
2024/01/12 04:13:55;;;;;;;16.23;8.55;;;6.70;99.90;;;;;;5068166;28;20043;-80
2024/01/12 04:16:20;;;;;;;16.20;9.02;;;6.90;99.90;;;;;;5051850;28;20059;-76
2024/01/12 04:18:46;;;;;;;16.48;8.93;;;6.60;99.90;;;;;;5091935;27;20102;-78
2024/01/12 04:21:13;;;;;;;19.75;9.25;;;6.70;99.90;;;;;;5068560;28;20465;-77
2024/01/12 04:23:39;;;;;;;14.80;8.35;;;6.50;99.90;;;;;;5061076;28;20044;-76
2024/01/12 04:26:06;;;;;;;19.63;9.13;;;6.10;99.90;;;;;;5068684;28;20040;-77
2024/01/12 04:28:32;;;;;;;25.10;11.73;;;6.80;99.90;;;;;;5067778;28;20735;-76
2024/01/12 04:30:57;;;;;;;20.92;10.77;;;6.80;99.90;;;;;;5068661;28;20033;-79
2024/01/12 04:33:24;;;;;;;24.80;11.73;;;6.60;99.90;;;;;;5046446;28;20109;-79
2024/01/12 04:35:50;;;;;;;27.25;12.13;;;6.90;99.90;;;;;;5052243;28;20050;-81
2024/01/12 04:38:16;;;;;;;33.72;13.70;;;6.50;99.90;;;;;;5051536;28;20041;-74
2024/01/12 04:40:41;;;;;;;26.15;12.07;;;6.50;99.90;;;;;;5050334;28;20037;-75
2024/01/12 04:43:07;;;;;;;22.60;12.23;;;6.90;99.90;;;;;;5068533;28;20040;-79
2024/01/12 04:45:33;;;;;;;25.38;11.93;;;6.30;99.90;;;;;;5066758;28;20032;-78
2024/01/12 04:47:58;;;;;;;20.73;11.70;;;7.10;99.90;;;;;;5068068;28;20033;-76
2024/01/12 04:50:24;;;;;;;23.83;11.55;;;7.10;99.90;;;;;;5051005;28;20040;-76
2024/01/12 04:52:51;;;;;;;26.85;10.82;;;6.30;99.90;;;;;;5034452;28;20123;-75
2024/01/12 04:55:18;;;;;;;22.23;10.90;;;6.20;99.90;;;;;;5035219;28;20194;-82
2024/01/12 04:57:44;;;;;;;24.52;11.63;;;7.00;99.90;;;;;;5067868;28;20032;-76
2024/01/12 05:00:10;;;;;;;30.45;11.20;;;6.10;99.90;;;;;;5066235;28;20049;-76
2024/01/12 05:02:35;;;;;;;22.58;10.40;;;6.90;99.90;;;;;;5064191;28;20498;-75
2024/01/12 05:05:04;;;;;;;21.52;12.45;;;6.90;99.90;;;;;;5060631;28;20040;-77
2024/01/12 05:07:30;;;;;;;22.00;11.30;;;6.20;99.90;;;;;;5047075;28;20044;-76
2024/01/12 05:09:56;;;;;;;21.92;10.05;;;6.10;99.90;;;;;;5047146;28;20028;-78
2024/01/12 05:12:22;;;;;;;25.38;10.40;;;6.30;99.90;;;;;;5063422;28;20487;-76
2024/01/12 05:14:48;;;;;;;25.23;10.85;;;6.00;99.90;;;;;;5050223;28;20131;-78
2024/01/12 05:17:14;;;;;;;25.02;12.35;;;6.90;99.90;;;;;;5064789;28;20044;-78
2024/01/12 05:19:39;;;;;;;19.67;10.82;;;6.00;99.90;;;;;;5064119;28;20067;-76
2024/01/12 05:22:05;;;;;;;25.67;11.60;;;6.60;99.90;;;;;;5061747;28;20060;-75
2024/01/12 05:24:31;;;;;;;25.42;11.52;;;6.50;99.90;;;;;;5066168;28;20044;-78
2024/01/12 05:26:58;;;;;;;25.05;11.98;;;6.50;99.90;;;;;;5051202;28;20036;-75
2024/01/12 05:29:23;;;;;;;31.73;12.50;;;5.90;99.90;;;;;;5031521;28;20071;-82
2024/01/12 05:31:49;;;;;;;25.80;12.13;;;6.70;99.90;;;;;;5048295;28;20071;-75
2024/01/12 05:34:15;;;;;;;27.60;11.70;;;6.70;99.90;;;;;;5050888;28;20610;-78
2024/01/12 05:36:40;;;;;;;24.33;11.38;;;6.70;99.90;;;;;;5049441;28;20487;-75
2024/01/12 05:39:06;;;;;;;25.90;12.52;;;6.50;99.90;;;;;;5067224;28;20481;-77
2024/01/12 05:41:32;;;;;;;20.92;12.35;;;6.10;99.90;;;;;;5050780;28;20128;-76
2024/01/12 05:43:58;;;;;;;23.17;11.90;;;5.70;99.90;;;;;;5031507;28;20063;-76
2024/01/12 05:46:24;;;;;;;29.08;12.55;;;6.20;99.90;;;;;;5050404;28;20099;-76
2024/01/12 05:48:49;;;;;;;27.75;11.48;;;5.80;99.90;;;;;;5071560;28;20028;-77
2024/01/12 05:51:15;;;;;;;29.80;12.85;;;6.50;99.90;;;;;;5067592;28;20079;-76
2024/01/12 05:53:41;;;;;;;26.58;12.55;;;6.50;99.90;;;;;;5064482;28;20546;-75
2024/01/12 05:56:07;;;;;;;29.65;13.32;;;6.50;99.90;;;;;;5067227;28;20041;-77
2024/01/12 05:58:33;;;;;;;31.95;14.57;;;5.80;99.90;;;;;;5050507;28;20037;-75
2024/01/12 06:00:59;;;;;;;42.30;16.27;;;6.10;99.90;;;;;;5066720;28;20060;-78
2024/01/12 06:03:28;;;;;;;40.45;14.52;;;6.50;99.90;;;;;;5065438;28;20434;-73
2024/01/12 06:05:57;;;;;;;29.95;13.75;;;6.50;99.90;;;;;;5050493;28;21546;-79
2024/01/12 06:08:23;;;;;;;29.92;14.25;;;6.50;99.90;;;;;;5043247;28;20153;-76
2024/01/12 06:10:50;;;;;;;28.75;13.00;;;5.80;99.90;;;;;;5048139;28;20088;-75
2024/01/12 06:13:16;;;;;;;31.38;13.15;;;6.00;99.90;;;;;;5064932;28;20059;-79
2024/01/12 06:15:42;;;;;;;34.08;14.10;;;6.10;99.90;;;;;;5017278;28;20136;-77
2024/01/12 06:18:08;;;;;;;28.58;12.55;;;5.80;99.90;;;;;;5048475;28;20458;-78
2024/01/12 06:20:34;;;;;;;30.23;14.57;;;6.50;99.90;;;;;;5064895;28;20024;-78
2024/01/12 06:23:00;;;;;;;33.08;12.32;;;6.00;99.90;;;;;;5050215;28;20401;-76
2024/01/12 06:25:26;;;;;;;29.35;12.80;;;6.70;99.90;;;;;;5044826;28;20032;-77
2024/01/12 06:27:51;;;;;;;42.72;13.60;;;6.40;99.90;;;;;;5049068;28;20029;-74
2024/01/12 06:30:17;;;;;;;28.00;12.00;;;6.70;99.90;;;;;;5061919;28;20396;-77
2024/01/12 06:32:43;;;;;;;30.52;12.85;;;6.70;99.90;;;;;;5062936;28;20051;-74
2024/01/12 06:35:11;;;;;;;30.23;12.43;;;6.90;99.90;;;;;;5059332;28;20060;-76
2024/01/12 06:37:37;;;;;;;24.80;11.23;;;6.70;99.90;;;;;;5076421;28;20416;-79
2024/01/12 06:40:04;;;;;;;30.70;10.40;;;6.90;99.90;;;;;;5048441;28;20048;-75
2024/01/12 06:42:30;;;;;;;25.52;9.55;;;6.20;99.90;;;;;;5067116;28;20036;-80
2024/01/12 06:44:56;;;;;;;25.75;9.85;;;6.30;99.90;;;;;;5045103;28;21262;-77
2024/01/12 06:47:22;;;;;;;25.05;9.63;;;6.50;99.90;;;;;;5066358;28;20061;-75
2024/01/12 06:49:48;;;;;;;24.20;10.23;;;6.10;99.90;;;;;;5065693;28;20444;-81
2024/01/12 06:52:13;;;;;;;28.25;9.90;;;6.40;99.90;;;;;;5047298;28;20056;-80
2024/01/12 06:54:43;;;;;;;34.25;9.90;;;6.20;99.90;;;;;;5063757;28;20094;-75
2024/01/12 06:57:09;;;;;;;27.88;9.88;;;6.60;99.90;;;;;;5065062;28;20477;-77
2024/01/12 06:59:35;;;;;;;29.15;9.45;;;6.30;99.90;;;;;;5065676;28;20048;-76
2024/01/12 07:02:01;;;;;;;22.23;8.85;;;6.60;99.90;;;;;;5049929;28;21917;-77
2024/01/12 07:04:27;;;;;;;29.33;11.60;;;7.20;99.90;;;;;;5065421;28;20029;-77
2024/01/12 07:06:52;;;;;;;23.08;8.25;;;6.60;99.90;;;;;;5049695;28;20380;-80
2024/01/12 07:09:19;;;;;;;24.17;8.60;;;7.20;99.90;;;;;;5049484;28;20678;-76
2024/01/12 07:11:45;;;;;;;22.80;8.15;;;7.20;99.90;;;;;;5065404;28;20041;-75
2024/01/12 07:14:11;;;;;;;23.58;8.15;;;6.80;99.90;;;;;;5073262;28;20444;-74
2024/01/12 07:16:38;;;;;;;22.58;8.20;;;7.40;99.90;;;;;;5066033;28;20648;-75
2024/01/12 07:19:04;;;;;;;21.95;6.93;;;7.20;99.90;;;;;;5062703;28;20583;-78
2024/01/12 07:21:29;;;;;;;19.42;7.30;;;6.60;99.90;;;;;;5031560;28;20032;-75
2024/01/12 07:23:55;;;;;;;30.98;7.40;;;7.40;99.90;;;;;;5067315;28;20037;-75
2024/01/12 07:26:21;;;;;;;17.95;7.22;;;7.20;99.90;;;;;;5051146;28;20048;-80
2024/01/12 07:28:47;;;;;;;17.95;6.53;;;7.30;99.90;;;;;;5050969;28;20395;-69
2024/01/12 07:31:12;;;;;;;23.70;7.22;;;6.90;99.90;;;;;;5070405;28;20036;-80
2024/01/12 07:33:38;;;;;;;20.58;6.93;;;6.80;99.90;;;;;;5046962;28;20366;-78
2024/01/12 07:36:04;;;;;;;18.30;5.97;;;7.20;99.90;;;;;;5071185;28;20078;-77
2024/01/12 07:38:30;;;;;;;24.13;5.70;;;6.70;99.90;;;;;;5053035;28;20099;-79
2024/01/12 07:40:55;;;;;;;23.25;5.78;;;6.60;99.90;;;;;;5037379;28;20536;-76
2024/01/12 07:43:21;;;;;;;18.30;5.90;;;6.70;99.90;;;;;;5053463;28;20072;-79
2024/01/12 07:45:47;;;;;;;17.83;4.88;;;6.50;99.90;;;;;;5070520;28;20492;-81
2024/01/12 07:48:12;;;;;;;19.15;5.75;;;7.30;99.90;;;;;;5054056;28;20029;-79
2024/01/12 07:50:38;;;;;;;16.70;5.13;;;6.60;99.90;;;;;;5053789;28;20098;-80
2024/01/12 07:53:04;;;;;;;17.30;5.50;;;7.00;99.90;;;;;;5050673;28;20377;-78
2024/01/12 07:55:30;;;;;;;18.00;5.20;;;7.00;99.90;;;;;;5068066;28;20136;-78
2024/01/12 07:57:56;;;;;;;21.23;5.85;;;6.90;99.90;;;;;;5053832;28;20136;-76
2024/01/12 08:00:21;;;;;;;13.40;4.43;;;7.50;99.90;;;;;;5069386;28;20445;-81
2024/01/12 08:02:47;;;;;;;20.63;6.70;;;6.60;99.90;;;;;;5053438;28;20115;-78
2024/01/12 08:05:13;;;;;;;22.58;4.80;;;7.30;99.90;;;;;;5068380;28;20488;-78
2024/01/12 08:07:39;;;;;;;15.65;5.15;;;7.40;99.90;;;;;;5053694;28;20123;-78
2024/01/12 08:10:05;;;;;;;28.27;6.05;;;6.80;99.90;;;;;;5053694;28;20044;-77
2024/01/12 08:12:31;;;;;;;16.27;4.72;;;6.90;99.90;;;;;;5052937;28;20136;-80
2024/01/12 08:14:56;;;;;;;17.20;5.03;;;7.30;99.90;;;;;;5050635;28;20124;-78
2024/01/12 08:17:22;;;;;;;11.98;4.10;;;7.40;99.90;;;;;;5036752;28;20036;-79
2024/01/12 08:19:48;;;;;;;18.80;4.68;;;7.40;99.90;;;;;;5074826;28;20040;-80
2024/01/12 08:22:14;;;;;;;20.20;4.97;;;7.40;99.90;;;;;;5052439;28;20037;-77
2024/01/12 08:24:40;;;;;;;16.65;4.47;;;7.00;99.90;;;;;;5049015;28;20051;-79
2024/01/12 08:27:06;;;;;;;17.50;4.93;;;7.60;99.90;;;;;;5068936;28;20421;-77
2024/01/12 08:29:31;;;;;;;19.25;4.68;;;7.80;99.90;;;;;;5068685;28;20040;-75
2024/01/12 08:31:58;;;;;;;16.38;4.38;;;7.40;99.90;;;;;;5035632;28;20032;-76
2024/01/12 08:34:25;;;;;;;16.65;4.88;;;6.80;99.90;;;;;;5067586;28;20040;-75
2024/01/12 08:36:51;;;;;;;19.63;4.90;;;7.30;99.90;;;;;;5067661;28;20044;-77
2024/01/12 08:39:17;;;;;;;14.88;4.03;;;7.00;99.90;;;;;;5052165;28;20707;-81
2024/01/12 08:41:43;;;;;;;16.65;3.78;;;7.90;99.90;;;;;;5052148;28;20032;-75
2024/01/12 08:44:11;;;;;;;19.50;4.43;;;7.20;99.90;;;;;;5052608;28;20040;-79
2024/01/12 08:46:37;;;;;;;20.85;5.05;;;7.20;99.90;;;;;;5064852;28;20041;-76
2024/01/12 08:49:03;;;;;;;14.98;3.55;;;7.50;99.90;;;;;;5069371;28;20036;-74
2024/01/12 08:51:29;;;;;;;14.00;3.85;;;8.20;99.90;;;;;;5068789;28;20525;-76
2024/01/12 08:53:55;;;;;;;14.98;3.03;;;7.70;99.90;;;;;;5068057;28;20051;-78
2024/01/12 08:56:21;;;;;;;13.13;3.45;;;8.00;12.40;;;;;;5048984;28;20052;-78
2024/01/12 08:58:49;;;;;;;14.75;3.67;;;8.40;1.00;;;;;;5068898;28;20040;-76
2024/01/12 09:01:15;;;;;;;10.77;3.40;;;8.50;1.00;;;;;;5068535;28;20055;-77
2024/01/12 09:03:41;;;;;;;14.63;3.47;;;8.50;99.90;;;;;;5068030;28;20045;-75
2024/01/12 09:06:07;;;;;;;14.93;3.67;;;8.30;99.90;;;;;;5046343;28;20033;-75
2024/01/12 09:08:33;;;;;;;10.48;3.30;;;8.50;99.90;;;;;;5069001;28;20041;-80
2024/01/12 09:11:01;;;;;;;12.60;3.25;;;8.40;99.90;;;;;;5052570;28;20098;-74
2024/01/12 09:13:26;;;;;;;11.70;3.42;;;8.50;99.90;;;;;;5068415;28;20032;-79
2024/01/12 09:15:52;;;;;;;11.65;3.10;;;8.50;99.90;;;;;;5049248;28;20400;-76
2024/01/12 09:18:18;;;;;;;15.10;4.22;;;7.80;99.90;;;;;;5089838;28;20044;-76
2024/01/12 09:20:43;;;;;;;17.85;3.75;;;8.20;99.90;;;;;;5049850;28;20041;-78
2024/01/12 09:23:09;;;;;;;17.90;4.22;;;7.70;99.90;;;;;;5034624;28;20037;-79
2024/01/12 09:25:35;;;;;;;19.23;4.18;;;8.30;99.90;;;;;;5064212;28;20039;-79
2024/01/12 09:28:00;;;;;;;14.60;4.28;;;8.30;99.90;;;;;;5050754;28;20040;-76
2024/01/12 09:30:26;;;;;;;14.63;3.17;;;7.90;99.90;;;;;;5052048;28;20531;-77
2024/01/12 09:32:52;;;;;;;18.08;3.28;;;8.50;99.90;;;;;;5035045;28;20048;-80
2024/01/12 09:35:18;;;;;;;21.02;3.90;;;8.00;99.90;;;;;;5050420;28;20044;-78
2024/01/12 09:37:43;;;;;;;17.73;4.10;;;7.90;99.90;;;;;;5021296;28;20045;-77
2024/01/12 09:40:10;;;;;;;14.30;4.03;;;8.40;99.90;;;;;;5052669;28;20124;-77
2024/01/12 09:42:40;;;;;;;21.10;4.43;;;8.30;99.90;;;;;;5052107;28;20507;-78
2024/01/12 09:45:06;;;;;;;23.38;4.53;;;7.90;99.90;;;;;;5059581;28;20037;-78
2024/01/12 09:47:32;;;;;;;20.05;3.97;;;7.90;99.90;;;;;;5037968;28;20124;-78
2024/01/12 09:49:58;;;;;;;16.13;3.63;;;8.20;99.90;;;;;;5050090;28;20071;-78
2024/01/12 09:52:23;;;;;;;16.23;3.88;;;8.20;99.90;;;;;;5051193;28;20055;-78
2024/01/12 09:54:49;;;;;;;17.20;4.20;;;8.20;99.90;;;;;;5047921;28;20033;-77
2024/01/12 09:57:15;;;;;;;19.65;3.83;;;8.80;99.90;;;;;;5037764;28;20066;-77
2024/01/12 09:59:42;;;;;;;18.45;3.67;;;8.80;99.90;;;;;;5045993;28;20053;-79
2024/01/12 10:02:13;;;;;;;19.52;4.80;;;8.00;99.90;;;;;;5040608;28;20040;-77
2024/01/12 10:04:38;;;;;;;15.57;3.95;;;8.30;1.00;;;;;;5053326;28;20096;-79
2024/01/12 10:07:04;;;;;;;17.98;3.33;;;8.00;1.00;;;;;;5038089;28;20124;-74
2024/01/12 10:09:30;;;;;;;18.10;4.20;;;8.70;1.00;;;;;;5067883;28;20045;-76
2024/01/12 10:11:56;;;;;;;16.75;3.75;;;8.70;1.00;;;;;;5069698;28;20036;-76
2024/01/12 10:14:22;;;;;;;15.70;4.05;;;7.90;1.00;;;;;;5072107;28;20040;-74
2024/01/12 10:16:58;;;;;;;25.55;4.55;;;8.00;1.00;;;;;;5061860;28;20090;-73
2024/01/12 10:19:25;;;;;;;17.55;3.80;;;8.20;1.00;;;;;;5072039;28;20123;-75
2024/01/12 10:21:51;;;;;;;17.75;3.78;;;8.80;1.00;;;;;;5041806;28;20127;-75
2024/01/12 10:24:19;;;;;;;18.08;3.75;;;8.90;1.00;;;;;;5071125;28;20041;-74
2024/01/12 10:26:49;;;;;;;13.23;3.00;;;8.10;1.00;;;;;;5072128;28;20094;-74
2024/01/12 10:29:15;;;;;;;13.68;3.53;;;8.90;1.00;;;;;;5070840;28;20124;-74
2024/01/12 10:31:43;;;;;;;18.05;4.90;;;8.80;1.00;;;;;;5074895;28;20047;-77
2024/01/12 10:34:14;;;;;;;17.50;3.85;;;8.90;1.00;;;;;;5073644;28;20044;-76
2024/01/12 10:36:40;;;;;;;19.15;4.70;;;8.20;1.00;;;;;;5066683;28;20052;-76
2024/01/12 10:39:14;;;;;;;13.20;3.80;;;9.00;1.00;;;;;;5061482;28;20165;-76
2024/01/12 10:41:41;;;;;;;18.00;3.88;;;8.50;1.00;;;;;;5061238;28;20086;-74
2024/01/12 10:44:08;;;;;;;14.60;4.30;;;9.10;1.00;;;;;;5074191;28;20048;-74
2024/01/12 10:46:48;;;;;;;17.42;3.45;;;8.30;1.00;;;;;;5071838;28;20040;-76
2024/01/12 10:49:18;;;;;;;20.02;3.80;;;9.10;1.00;;;;;;5068228;28;20052;-77
2024/01/12 10:52:10;;;;;;;18.98;3.63;;;8.20;1.00;;;;;;5057610;28;20672;-75
2024/01/12 10:55:13;;;;;;;29.45;4.22;;;8.20;1.00;;;;;;5072821;28;20075;-76
2024/01/12 10:57:42;;;;;;;20.90;4.95;;;8.80;31.90;;;;;;5069732;28;20048;-78
2024/01/12 11:00:10;;;;;;;20.38;4.28;;;8.10;86.10;;;;;;5084088;28;20083;-74
2024/01/12 11:02:37;;;;;;;22.00;3.92;;;8.30;99.90;;;;;;5069744;28;20155;-79
2024/01/12 11:05:03;;;;;;;19.63;3.58;;;8.80;99.90;;;;;;5071859;28;20036;-74
2024/01/12 11:07:30;;;;;;;23.52;4.13;;;8.40;99.90;;;;;;5067542;28;20036;-75
2024/01/12 11:09:56;;;;;;;18.98;4.93;;;8.20;99.90;;;;;;5066254;28;20101;-76
2024/01/12 11:12:35;;;;;;;25.73;5.70;;;8.40;99.90;;;;;;5055885;28;20087;-77
2024/01/12 11:15:01;;;;;;;18.52;4.22;;;9.20;99.90;;;;;;5069116;28;20087;-75
2024/01/12 11:17:33;;;;;;;23.00;4.25;;;9.20;99.90;;;;;;5066699;28;20503;-77
2024/01/12 11:20:19;;;;;;;19.70;4.20;;;8.30;99.90;;;;;;5049746;28;20127;-74
2024/01/12 11:22:48;;;;;;;23.30;4.82;;;9.20;99.90;;;;;;5054251;28;20049;-76
2024/01/12 11:25:15;;;;;;;21.67;4.72;;;8.40;99.90;;;;;;5067983;28;20709;-75
2024/01/12 11:27:45;;;;;;;24.33;4.65;;;8.90;99.90;;;;;;5066351;28;20115;-77
2024/01/12 11:30:11;;;;;;;20.45;3.97;;;9.20;99.90;;;;;;5053722;28;20120;-75
2024/01/12 11:32:37;;;;;;;23.33;4.35;;;8.50;99.90;;;;;;5071898;28;20041;-78
2024/01/12 11:35:33;;;;;;;17.17;4.32;;;9.10;99.90;;;;;;5072455;28;20098;-77
2024/01/12 11:38:11;;;;;;;30.40;5.10;;;8.60;99.90;;;;;;5046120;28;20048;-75
2024/01/12 11:40:37;;;;;;;19.70;4.80;;;9.30;99.90;;;;;;5070618;28;20044;-75
2024/01/12 11:43:04;;;;;;;20.55;4.30;;;9.40;99.90;;;;;;5072025;28;20037;-76
2024/01/12 11:45:31;;;;;;;22.27;4.75;;;9.40;99.90;;;;;;5069363;28;20139;-80
2024/01/12 11:48:01;;;;;;;24.63;5.15;;;9.50;99.90;;;;;;5059104;28;20064;-80
2024/01/12 11:50:27;;;;;;;24.05;4.60;;;8.50;99.90;;;;;;5062481;28;20055;-73
2024/01/12 11:53:00;;;;;;;21.13;4.90;;;9.40;99.90;;;;;;5068783;28;20051;-75
2024/01/12 11:55:26;;;;;;;22.30;4.60;;;9.30;99.90;;;;;;5070396;28;20127;-76
2024/01/12 11:57:55;;;;;;;25.17;4.40;;;9.50;99.90;;;;;;5051788;28;20041;-75
2024/01/12 12:00:23;;;;;;;25.15;5.45;;;9.60;99.90;;;;;;5035092;28;20062;-79
2024/01/12 12:02:49;;;;;;;16.80;4.47;;;9.20;99.90;;;;;;5050333;28;20044;-79
2024/01/12 12:05:15;;;;;;;24.80;4.70;;;8.70;99.90;;;;;;5091214;28;20045;-77
2024/01/12 12:07:41;;;;;;;23.00;4.95;;;9.40;99.90;;;;;;5038882;28;20056;-77
2024/01/12 12:10:08;;;;;;;17.08;4.20;;;8.60;99.90;;;;;;5044162;28;20056;-73
2024/01/12 12:12:35;;;;;;;22.38;4.50;;;9.50;99.90;;;;;;5069999;28;20055;-76
2024/01/12 12:15:12;;;;;;;25.00;4.65;;;8.60;99.90;;;;;;5069355;28;20079;-78
2024/01/12 12:17:41;;;;;;;21.95;4.85;;;9.30;99.90;;;;;;5062176;28;20044;-80
2024/01/12 12:20:11;;;;;;;22.52;4.40;;;9.50;99.90;;;;;;5059742;28;20032;-75
2024/01/12 12:22:41;;;;;;;23.65;4.90;;;9.30;99.90;;;;;;5051547;28;20032;-82
2024/01/12 12:25:11;;;;;;;23.02;5.13;;;9.00;99.90;;;;;;5047973;28;20131;-77
2024/01/12 12:27:41;;;;;;;25.30;5.28;;;8.80;99.90;;;;;;5059061;28;20063;-75
2024/01/12 12:30:12;;;;;;;21.70;5.07;;;9.30;99.90;;;;;;5056730;28;20389;-79
2024/01/12 12:32:42;;;;;;;16.48;4.78;;;8.70;90.50;;;;;;5054981;28;20044;-81
2024/01/12 12:35:13;;;;;;;21.02;5.15;;;9.70;38.20;;;;;;5064335;28;20523;-76
2024/01/12 12:37:42;;;;;;;22.33;4.75;;;8.90;8.80;;;;;;5068522;28;20565;-78
2024/01/12 12:40:09;;;;;;;20.00;4.43;;;9.50;1.00;;;;;;5051484;28;20433;-76
2024/01/12 12:42:35;;;;;;;26.50;5.25;;;8.80;1.00;;;;;;5069001;28;20040;-78